sensor_id;sensor_type;location;lat;lon;timestamp;temperature;humidity
3715;DHT22;1873;49.988;8.674;2022-11-11T00:00:40;8.60;99.90
3715;DHT22;1873;49.988;8.674;2022-11-11T00:03:08;8.70;99.90
3715;DHT22;1873;49.988;8.674;2022-11-11T00:05:37;8.60;99.90
3715;DHT22;1873;49.988;8.674;2022-11-11T00:08:05;8.60;99.90
3715;DHT22;1873;49.988;8.674;2022-11-11T00:10:34;8.60;99.90
3715;DHT22;1873;49.988;8.674;2022-11-11T00:13:03;8.60;99.90
3715;DHT22;1873;49.988;8.674;2022-11-11T00:15:36;8.50;99.90
3715;DHT22;1873;49.988;8.674;2022-11-11T00:18:08;8.40;99.90
3715;DHT22;1873;49.988;8.674;2022-11-11T00:20:57;8.40;99.90
3715;DHT22;1873;49.988;8.674;2022-11-11T00:23:46;8.30;99.90
3715;DHT22;1873;49.988;8.674;2022-11-11T00:26:31;8.30;99.90
3715;DHT22;1873;49.988;8.674;2022-11-11T00:29:05;8.10;99.90
3715;DHT22;1873;49.988;8.674;2022-11-11T00:31:34;8.10;99.90
3715;DHT22;1873;49.988;8.674;2022-11-11T00:34:24;8.10;99.90
3715;DHT22;1873;49.988;8.674;2022-11-11T00:36:52;8.10;99.90
3715;DHT22;1873;49.988;8.674;2022-11-11T00:39:21;8.00;99.90
3715;DHT22;1873;49.988;8.674;2022-11-11T00:41:50;8.10;99.90
3715;DHT22;1873;49.988;8.674;2022-11-11T00:44:18;8.10;99.90
3715;DHT22;1873;49.988;8.674;2022-11-11T00:46:46;8.20;99.90
3715;DHT22;1873;49.988;8.674;2022-11-11T00:49:36;8.20;99.90
3715;DHT22;1873;49.988;8.674;2022-11-11T00:52:21;8.10;99.90
3715;DHT22;1873;49.988;8.674;2022-11-11T00:54:51;8.10;99.90
3715;DHT22;1873;49.988;8.674;2022-11-11T00:57:20;8.00;99.90
3715;DHT22;1873;49.988;8.674;2022-11-11T00:59:48;8.00;99.90
3715;DHT22;1873;49.988;8.674;2022-11-11T01:02:16;7.90;99.90
3715;DHT22;1873;49.988;8.674;2022-11-11T01:04:46;8.00;99.90
3715;DHT22;1873;49.988;8.674;2022-11-11T01:07:15;8.00;99.90
3715;DHT22;1873;49.988;8.674;2022-11-11T01:09:43;8.00;99.90
3715;DHT22;1873;49.988;8.674;2022-11-11T01:12:12;7.90;99.90
3715;DHT22;1873;49.988;8.674;2022-11-11T01:14:40;7.90;99.90
3715;DHT22;1873;49.988;8.674;2022-11-11T01:17:08;7.90;99.90
3715;DHT22;1873;49.988;8.674;2022-11-11T01:19:37;7.90;99.90
3715;DHT22;1873;49.988;8.674;2022-11-11T01:22:07;7.90;99.90
3715;DHT22;1873;49.988;8.674;2022-11-11T01:24:36;7.70;99.90
3715;DHT22;1873;49.988;8.674;2022-11-11T01:27:04;7.60;99.90
3715;DHT22;1873;49.988;8.674;2022-11-11T01:29:33;7.70;99.90
3715;DHT22;1873;49.988;8.674;2022-11-11T01:32:04;7.70;99.90
3715;DHT22;1873;49.988;8.674;2022-11-11T01:34:32;7.80;99.90
3715;DHT22;1873;49.988;8.674;2022-11-11T01:37:01;7.80;99.90
3715;DHT22;1873;49.988;8.674;2022-11-11T01:39:31;7.80;99.90
3715;DHT22;1873;49.988;8.674;2022-11-11T01:42:00;7.90;99.90
3715;DHT22;1873;49.988;8.674;2022-11-11T01:44:42;7.80;99.90
3715;DHT22;1873;49.988;8.674;2022-11-11T01:47:12;7.80;99.90
3715;DHT22;1873;49.988;8.674;2022-11-11T01:49:48;7.80;99.90
3715;DHT22;1873;49.988;8.674;2022-11-11T01:52:19;7.80;99.90
3715;DHT22;1873;49.988;8.674;2022-11-11T01:54:52;7.80;99.90
3715;DHT22;1873;49.988;8.674;2022-11-11T01:57:26;7.70;99.90
3715;DHT22;1873;49.988;8.674;2022-11-11T02:00:02;7.70;99.90
3715;DHT22;1873;49.988;8.674;2022-11-11T02:02:36;7.70;99.90
3715;DHT22;1873;49.988;8.674;2022-11-11T02:05:09;7.70;99.90
3715;DHT22;1873;49.988;8.674;2022-11-11T02:07:56;7.60;99.90
3715;DHT22;1873;49.988;8.674;2022-11-11T02:10:30;7.60;99.90
3715;DHT22;1873;49.988;8.674;2022-11-11T02:13:00;7.60;99.90
3715;DHT22;1873;49.988;8.674;2022-11-11T02:15:47;7.60;99.90
3715;DHT22;1873;49.988;8.674;2022-11-11T02:18:18;7.60;99.90
3715;DHT22;1873;49.988;8.674;2022-11-11T02:20:47;7.60;99.90
3715;DHT22;1873;49.988;8.674;2022-11-11T02:23:23;7.50;99.90
3715;DHT22;1873;49.988;8.674;2022-11-11T02:25:59;7.50;99.90
3715;DHT22;1873;49.988;8.674;2022-11-11T02:28:31;7.50;99.90
3715;DHT22;1873;49.988;8.674;2022-11-11T02:31:01;7.40;99.90
3715;DHT22;1873;49.988;8.674;2022-11-11T02:33:31;7.50;99.90
3715;DHT22;1873;49.988;8.674;2022-11-11T02:36:00;7.60;99.90
3715;DHT22;1873;49.988;8.674;2022-11-11T02:38:29;7.60;99.90
3715;DHT22;1873;49.988;8.674;2022-11-11T02:41:00;7.50;99.90
3715;DHT22;1873;49.988;8.674;2022-11-11T02:43:45;7.50;99.90
3715;DHT22;1873;49.988;8.674;2022-11-11T02:46:13;7.50;99.90
3715;DHT22;1873;49.988;8.674;2022-11-11T02:48:45;7.60;99.90
3715;DHT22;1873;49.988;8.674;2022-11-11T02:51:15;7.50;99.90
3715;DHT22;1873;49.988;8.674;2022-11-11T02:53:43;7.50;99.90
3715;DHT22;1873;49.988;8.674;2022-11-11T02:56:13;7.40;99.90
3715;DHT22;1873;49.988;8.674;2022-11-11T02:59:03;7.30;99.90
3715;DHT22;1873;49.988;8.674;2022-11-11T03:01:31;7.30;99.90
3715;DHT22;1873;49.988;8.674;2022-11-11T03:04:01;7.30;99.90
3715;DHT22;1873;49.988;8.674;2022-11-11T03:06:30;7.30;99.90
3715;DHT22;1873;49.988;8.674;2022-11-11T03:08:58;7.30;99.90
3715;DHT22;1873;49.988;8.674;2022-11-11T03:11:28;7.30;99.90
3715;DHT22;1873;49.988;8.674;2022-11-11T03:13:58;7.30;99.90
3715;DHT22;1873;49.988;8.674;2022-11-11T03:16:27;7.30;99.90
3715;DHT22;1873;49.988;8.674;2022-11-11T03:19:09;7.30;99.90
3715;DHT22;1873;49.988;8.674;2022-11-11T03:21:37;7.30;99.90
3715;DHT22;1873;49.988;8.674;2022-11-11T03:24:26;7.30;99.90
3715;DHT22;1873;49.988;8.674;2022-11-11T03:27:17;7.40;99.90
3715;DHT22;1873;49.988;8.674;2022-11-11T03:29:47;7.20;99.90
3715;DHT22;1873;49.988;8.674;2022-11-11T03:32:17;7.30;99.90
3715;DHT22;1873;49.988;8.674;2022-11-11T03:34:47;7.40;99.90
3715;DHT22;1873;49.988;8.674;2022-11-11T03:37:18;7.40;99.90
3715;DHT22;1873;49.988;8.674;2022-11-11T03:40:04;7.40;99.90
3715;DHT22;1873;49.988;8.674;2022-11-11T03:42:38;7.50;99.90
3715;DHT22;1873;49.988;8.674;2022-11-11T03:45:08;7.50;99.90
3715;DHT22;1873;49.988;8.674;2022-11-11T03:47:37;7.50;99.90
3715;DHT22;1873;49.988;8.674;2022-11-11T03:50:06;7.50;99.90
3715;DHT22;1873;49.988;8.674;2022-11-11T03:52:34;7.40;99.90
3715;DHT22;1873;49.988;8.674;2022-11-11T03:55:09;7.50;99.90
3715;DHT22;1873;49.988;8.674;2022-11-11T03:57:46;7.50;99.90
3715;DHT22;1873;49.988;8.674;2022-11-11T04:00:20;7.50;99.90
3715;DHT22;1873;49.988;8.674;2022-11-11T04:02:49;7.50;99.90
3715;DHT22;1873;49.988;8.674;2022-11-11T04:05:35;7.20;99.90
3715;DHT22;1873;49.988;8.674;2022-11-11T04:08:21;7.10;99.90
3715;DHT22;1873;49.988;8.674;2022-11-11T04:11:07;7.00;99.90
3715;DHT22;1873;49.988;8.674;2022-11-11T04:13:39;6.80;99.90
3715;DHT22;1873;49.988;8.674;2022-11-11T04:16:25;6.80;99.90
3715;DHT22;1873;49.988;8.674;2022-11-11T04:18:56;6.60;99.90
3715;DHT22;1873;49.988;8.674;2022-11-11T04:21:41;6.60;99.90
3715;DHT22;1873;49.988;8.674;2022-11-11T04:24:15;6.70;99.90
3715;DHT22;1873;49.988;8.674;2022-11-11T04:27:03;6.70;99.90
3715;DHT22;1873;49.988;8.674;2022-11-11T04:29:34;6.70;99.90
3715;DHT22;1873;49.988;8.674;2022-11-11T04:32:03;6.30;99.90
3715;DHT22;1873;49.988;8.674;2022-11-11T04:34:50;6.30;99.90
3715;DHT22;1873;49.988;8.674;2022-11-11T04:37:20;6.20;99.90
3715;DHT22;1873;49.988;8.674;2022-11-11T04:39:53;6.10;99.90
3715;DHT22;1873;49.988;8.674;2022-11-11T04:42:39;6.00;99.90
3715;DHT22;1873;49.988;8.674;2022-11-11T04:45:11;5.90;99.90
3715;DHT22;1873;49.988;8.674;2022-11-11T04:47:55;6.00;99.90
3715;DHT22;1873;49.988;8.674;2022-11-11T04:50:41;5.90;99.90
3715;DHT22;1873;49.988;8.674;2022-11-11T04:53:16;5.80;99.90
3715;DHT22;1873;49.988;8.674;2022-11-11T04:55:59;5.70;99.90
3715;DHT22;1873;49.988;8.674;2022-11-11T04:58:45;5.70;99.90
3715;DHT22;1873;49.988;8.674;2022-11-11T05:01:46;5.90;99.90
3715;DHT22;1873;49.988;8.674;2022-11-11T05:04:32;6.10;99.90
3715;DHT22;1873;49.988;8.674;2022-11-11T05:07:05;6.10;99.90
3715;DHT22;1873;49.988;8.674;2022-11-11T05:10:06;5.90;99.90
3715;DHT22;1873;49.988;8.674;2022-11-11T05:12:37;5.80;99.90
3715;DHT22;1873;49.988;8.674;2022-11-11T05:15:25;5.50;99.90
3715;DHT22;1873;49.988;8.674;2022-11-11T05:18:13;5.50;99.90
3715;DHT22;1873;49.988;8.674;2022-11-11T05:21:00;5.70;99.90
3715;DHT22;1873;49.988;8.674;2022-11-11T05:23:46;5.20;99.90
3715;DHT22;1873;49.988;8.674;2022-11-11T05:26:34;5.00;99.90
3715;DHT22;1873;49.988;8.674;2022-11-11T05:29:03;5.00;99.90
3715;DHT22;1873;49.988;8.674;2022-11-11T05:31:31;5.20;99.90
3715;DHT22;1873;49.988;8.674;2022-11-11T05:34:01;5.40;99.90
3715;DHT22;1873;49.988;8.674;2022-11-11T05:36:30;5.30;99.90
3715;DHT22;1873;49.988;8.674;2022-11-11T05:38:58;5.50;99.90
3715;DHT22;1873;49.988;8.674;2022-11-11T05:41:26;5.70;99.90
3715;DHT22;1873;49.988;8.674;2022-11-11T05:43:55;5.70;99.90
3715;DHT22;1873;49.988;8.674;2022-11-11T05:46:23;5.90;99.90
3715;DHT22;1873;49.988;8.674;2022-11-11T05:48:57;6.00;99.90
3715;DHT22;1873;49.988;8.674;2022-11-11T05:51:45;6.10;99.90
3715;DHT22;1873;49.988;8.674;2022-11-11T05:54:14;6.10;99.90
3715;DHT22;1873;49.988;8.674;2022-11-11T05:56:44;6.30;99.90
3715;DHT22;1873;49.988;8.674;2022-11-11T05:59:19;6.30;99.90
3715;DHT22;1873;49.988;8.674;2022-11-11T06:01:55;6.30;99.90
3715;DHT22;1873;49.988;8.674;2022-11-11T06:04:24;6.40;99.90
3715;DHT22;1873;49.988;8.674;2022-11-11T06:06:54;6.50;99.90
3715;DHT22;1873;49.988;8.674;2022-11-11T06:09:23;6.20;99.90
3715;DHT22;1873;49.988;8.674;2022-11-11T06:11:51;6.00;99.90
3715;DHT22;1873;49.988;8.674;2022-11-11T06:14:19;6.00;99.90
3715;DHT22;1873;49.988;8.674;2022-11-11T06:17:10;5.50;99.90
3715;DHT22;1873;49.988;8.674;2022-11-11T06:19:38;5.50;99.90
3715;DHT22;1873;49.988;8.674;2022-11-11T06:22:09;5.40;99.90
3715;DHT22;1873;49.988;8.674;2022-11-11T06:24:37;5.40;99.90
3715;DHT22;1873;49.988;8.674;2022-11-11T06:27:07;5.10;99.90
3715;DHT22;1873;49.988;8.674;2022-11-11T06:29:36;5.10;99.90
3715;DHT22;1873;49.988;8.674;2022-11-11T06:32:04;5.20;99.90
3715;DHT22;1873;49.988;8.674;2022-11-11T06:34:34;5.10;99.90
3715;DHT22;1873;49.988;8.674;2022-11-11T06:37:02;5.10;99.90
3715;DHT22;1873;49.988;8.674;2022-11-11T06:39:32;5.20;99.90
3715;DHT22;1873;49.988;8.674;2022-11-11T06:42:01;5.30;99.90
3715;DHT22;1873;49.988;8.674;2022-11-11T06:44:29;5.50;99.90
3715;DHT22;1873;49.988;8.674;2022-11-11T06:46:59;5.70;99.90
3715;DHT22;1873;49.988;8.674;2022-11-11T06:49:30;5.70;99.90
3715;DHT22;1873;49.988;8.674;2022-11-11T06:51:58;5.80;99.90
3715;DHT22;1873;49.988;8.674;2022-11-11T06:54:27;5.90;99.90
3715;DHT22;1873;49.988;8.674;2022-11-11T06:56:57;6.00;99.90
3715;DHT22;1873;49.988;8.674;2022-11-11T06:59:31;6.10;99.90
3715;DHT22;1873;49.988;8.674;2022-11-11T07:01:59;5.60;99.90
3715;DHT22;1873;49.988;8.674;2022-11-11T07:05:11;5.40;99.90
3715;DHT22;1873;49.988;8.674;2022-11-11T07:27:03;5.70;99.90
3715;DHT22;1873;49.988;8.674;2022-11-11T07:29:32;5.70;99.90
3715;DHT22;1873;49.988;8.674;2022-11-11T07:32:04;5.80;99.90
3715;DHT22;1873;49.988;8.674;2022-11-11T07:34:34;5.50;99.90
3715;DHT22;1873;49.988;8.674;2022-11-11T08:00:43;6.00;99.90
3715;DHT22;1873;49.988;8.674;2022-11-11T08:03:30;5.70;99.90
3715;DHT22;1873;49.988;8.674;2022-11-11T08:06:13;5.70;99.90
3715;DHT22;1873;49.988;8.674;2022-11-11T08:08:59;6.00;99.90
3715;DHT22;1873;49.988;8.674;2022-11-11T08:11:55;6.10;99.90
3715;DHT22;1873;49.988;8.674;2022-11-11T08:14:48;6.30;99.90
3715;DHT22;1873;49.988;8.674;2022-11-11T08:17:18;6.40;99.90
3715;DHT22;1873;49.988;8.674;2022-11-11T08:19:47;6.50;99.90
3715;DHT22;1873;49.988;8.674;2022-11-11T08:22:16;6.60;99.90
3715;DHT22;1873;49.988;8.674;2022-11-11T08:24:45;6.70;99.90
3715;DHT22;1873;49.988;8.674;2022-11-11T08:27:31;6.70;99.90
3715;DHT22;1873;49.988;8.674;2022-11-11T08:29:59;6.90;99.90
3715;DHT22;1873;49.988;8.674;2022-11-11T08:32:34;7.00;99.90
3715;DHT22;1873;49.988;8.674;2022-11-11T08:35:03;7.00;99.90
3715;DHT22;1873;49.988;8.674;2022-11-11T08:37:32;7.10;99.90
3715;DHT22;1873;49.988;8.674;2022-11-11T08:40:00;7.10;99.90
3715;DHT22;1873;49.988;8.674;2022-11-11T08:42:29;7.20;99.90
3715;DHT22;1873;49.988;8.674;2022-11-11T08:44:58;7.20;99.90
3715;DHT22;1873;49.988;8.674;2022-11-11T08:47:30;6.90;99.90
3715;DHT22;1873;49.988;8.674;2022-11-11T08:50:04;7.00;99.90
3715;DHT22;1873;49.988;8.674;2022-11-11T08:52:36;7.10;99.90
3715;DHT22;1873;49.988;8.674;2022-11-11T08:55:08;7.10;99.90
3715;DHT22;1873;49.988;8.674;2022-11-11T08:58:05;7.20;99.90
3715;DHT22;1873;49.988;8.674;2022-11-11T09:00:57;7.20;99.90
3715;DHT22;1873;49.988;8.674;2022-11-11T09:07:41;7.00;99.90
3715;DHT22;1873;49.988;8.674;2022-11-11T09:10:11;6.60;99.90
3715;DHT22;1873;49.988;8.674;2022-11-11T09:12:40;6.40;99.90
3715;DHT22;1873;49.988;8.674;2022-11-11T09:15:11;6.30;99.90
3715;DHT22;1873;49.988;8.674;2022-11-11T09:17:45;6.30;99.90
3715;DHT22;1873;49.988;8.674;2022-11-11T09:20:16;6.50;99.90
3715;DHT22;1873;49.988;8.674;2022-11-11T09:22:53;6.30;99.90
3715;DHT22;1873;49.988;8.674;2022-11-11T09:25:30;6.50;99.90
3715;DHT22;1873;49.988;8.674;2022-11-11T09:28:41;6.60;99.90
3715;DHT22;1873;49.988;8.674;2022-11-11T09:31:12;6.70;99.90
3715;DHT22;1873;49.988;8.674;2022-11-11T09:34:04;6.90;99.90
3715;DHT22;1873;49.988;8.674;2022-11-11T09:36:36;6.90;99.90
3715;DHT22;1873;49.988;8.674;2022-11-11T09:39:09;6.60;99.90
3715;DHT22;1873;49.988;8.674;2022-11-11T09:41:47;6.60;99.90
3715;DHT22;1873;49.988;8.674;2022-11-11T09:44:44;6.60;99.90
3715;DHT22;1873;49.988;8.674;2022-11-11T09:47:23;6.80;99.90
3715;DHT22;1873;49.988;8.674;2022-11-11T09:49:59;7.00;99.90
3715;DHT22;1873;49.988;8.674;2022-11-11T09:52:35;7.10;99.90
3715;DHT22;1873;49.988;8.674;2022-11-11T09:55:14;7.20;99.90
3715;DHT22;1873;49.988;8.674;2022-11-11T09:57:48;7.00;99.90
3715;DHT22;1873;49.988;8.674;2022-11-11T10:00:22;6.90;99.90
3715;DHT22;1873;49.988;8.674;2022-11-11T10:02:53;6.90;99.90
3715;DHT22;1873;49.988;8.674;2022-11-11T10:05:26;6.80;99.90
3715;DHT22;1873;49.988;8.674;2022-11-11T10:08:00;6.90;99.90
3715;DHT22;1873;49.988;8.674;2022-11-11T10:10:41;6.90;99.90
3715;DHT22;1873;49.988;8.674;2022-11-11T10:13:27;6.80;99.90
3715;DHT22;1873;49.988;8.674;2022-11-11T10:16:05;6.90;99.90
3715;DHT22;1873;49.988;8.674;2022-11-11T10:18:45;7.00;99.90
3715;DHT22;1873;49.988;8.674;2022-11-11T10:21:20;7.10;99.90
3715;DHT22;1873;49.988;8.674;2022-11-11T10:23:55;7.00;99.90
3715;DHT22;1873;49.988;8.674;2022-11-11T10:26:36;6.90;99.90
3715;DHT22;1873;49.988;8.674;2022-11-11T10:29:17;7.10;99.90
3715;DHT22;1873;49.988;8.674;2022-11-11T10:31:55;7.20;99.90
3715;DHT22;1873;49.988;8.674;2022-11-11T10:34:31;7.20;99.90
3715;DHT22;1873;49.988;8.674;2022-11-11T10:37:15;7.30;99.90
3715;DHT22;1873;49.988;8.674;2022-11-11T10:40:04;7.30;99.90
3715;DHT22;1873;49.988;8.674;2022-11-11T10:42:39;7.20;99.90
3715;DHT22;1873;49.988;8.674;2022-11-11T10:45:13;7.10;99.90
3715;DHT22;1873;49.988;8.674;2022-11-11T10:47:59;7.20;99.90
3715;DHT22;1873;49.988;8.674;2022-11-11T10:50:33;7.30;99.90
3715;DHT22;1873;49.988;8.674;2022-11-11T10:53:11;7.20;99.90
3715;DHT22;1873;49.988;8.674;2022-11-11T10:55:47;7.30;99.90
3715;DHT22;1873;49.988;8.674;2022-11-11T10:58:26;7.20;99.90
3715;DHT22;1873;49.988;8.674;2022-11-11T11:00:59;7.20;99.90
3715;DHT22;1873;49.988;8.674;2022-11-11T11:03:31;7.40;99.90
3715;DHT22;1873;49.988;8.674;2022-11-11T11:06:08;7.50;99.90
3715;DHT22;1873;49.988;8.674;2022-11-11T11:08:41;7.40;99.90
3715;DHT22;1873;49.988;8.674;2022-11-11T11:11:19;7.40;99.90
3715;DHT22;1873;49.988;8.674;2022-11-11T11:14:14;7.40;99.90
3715;DHT22;1873;49.988;8.674;2022-11-11T11:17:34;7.50;99.90
3715;DHT22;1873;49.988;8.674;2022-11-11T11:20:34;7.60;99.90
3715;DHT22;1873;49.988;8.674;2022-11-11T11:23:49;7.70;99.90
3715;DHT22;1873;49.988;8.674;2022-11-11T11:26:44;7.90;99.90
3715;DHT22;1873;49.988;8.674;2022-11-11T11:33:13;7.90;99.90
3715;DHT22;1873;49.988;8.674;2022-11-11T11:36:15;8.00;99.90
3715;DHT22;1873;49.988;8.674;2022-11-11T11:39:01;7.90;99.90
3715;DHT22;1873;49.988;8.674;2022-11-11T11:41:46;8.00;99.90
3715;DHT22;1873;49.988;8.674;2022-11-11T11:44:26;7.70;99.90
3715;DHT22;1873;49.988;8.674;2022-11-11T11:50:59;7.90;99.90
3715;DHT22;1873;49.988;8.674;2022-11-11T12:01:11;8.20;99.90
3715;DHT22;1873;49.988;8.674;2022-11-11T12:04:28;8.30;99.90
3715;DHT22;1873;49.988;8.674;2022-11-11T12:10:55;8.40;99.90
3715;DHT22;1873;49.988;8.674;2022-11-11T12:13:37;8.50;99.90
3715;DHT22;1873;49.988;8.674;2022-11-11T12:16:24;8.40;99.90
3715;DHT22;1873;49.988;8.674;2022-11-11T12:19:11;8.40;99.90
3715;DHT22;1873;49.988;8.674;2022-11-11T12:21:57;8.50;99.90
3715;DHT22;1873;49.988;8.674;2022-11-11T12:24:37;8.50;99.90
3715;DHT22;1873;49.988;8.674;2022-11-11T12:27:26;8.60;99.90
3715;DHT22;1873;49.988;8.674;2022-11-11T12:30:03;8.70;99.90
3715;DHT22;1873;49.988;8.674;2022-11-11T12:32:48;8.70;99.90
3715;DHT22;1873;49.988;8.674;2022-11-11T12:35:34;8.70;99.90
3715;DHT22;1873;49.988;8.674;2022-11-11T12:38:17;8.80;99.90
3715;DHT22;1873;49.988;8.674;2022-11-11T12:40:56;8.70;99.90
3715;DHT22;1873;49.988;8.674;2022-11-11T12:43:45;8.70;99.90
3715;DHT22;1873;49.988;8.674;2022-11-11T12:46:45;8.80;99.90
3715;DHT22;1873;49.988;8.674;2022-11-11T12:49:30;8.90;99.90
3715;DHT22;1873;49.988;8.674;2022-11-11T12:52:15;8.80;99.90
3715;DHT22;1873;49.988;8.674;2022-11-11T12:54:58;8.90;99.90
3715;DHT22;1873;49.988;8.674;2022-11-11T12:57:37;8.90;99.90
3715;DHT22;1873;49.988;8.674;2022-11-11T13:00:20;8.90;99.90
3715;DHT22;1873;49.988;8.674;2022-11-11T13:03:10;8.80;99.90
3715;DHT22;1873;49.988;8.674;2022-11-11T13:05:48;8.80;99.90
3715;DHT22;1873;49.988;8.674;2022-11-11T13:08:42;8.80;99.90
3715;DHT22;1873;49.988;8.674;2022-11-11T13:11:15;8.90;99.90
3715;DHT22;1873;49.988;8.674;2022-11-11T13:14:06;8.80;99.90
3715;DHT22;1873;49.988;8.674;2022-11-11T13:16:38;8.80;99.90
3715;DHT22;1873;49.988;8.674;2022-11-11T13:19:16;8.70;99.90
3715;DHT22;1873;49.988;8.674;2022-11-11T13:22:05;8.80;99.90
3715;DHT22;1873;49.988;8.674;2022-11-11T13:24:35;8.90;99.90
3715;DHT22;1873;49.988;8.674;2022-11-11T13:27:11;8.90;99.90
3715;DHT22;1873;49.988;8.674;2022-11-11T13:30:07;9.00;99.90
3715;DHT22;1873;49.988;8.674;2022-11-11T13:32:51;9.00;99.90
3715;DHT22;1873;49.988;8.674;2022-11-11T13:35:25;9.00;99.90
3715;DHT22;1873;49.988;8.674;2022-11-11T13:38:00;9.00;99.90
3715;DHT22;1873;49.988;8.674;2022-11-11T13:40:35;9.00;99.90
3715;DHT22;1873;49.988;8.674;2022-11-11T13:43:19;9.00;99.90
3715;DHT22;1873;49.988;8.674;2022-11-11T13:45:55;9.10;99.90
3715;DHT22;1873;49.988;8.674;2022-11-11T13:48:28;9.10;99.90
3715;DHT22;1873;49.988;8.674;2022-11-11T13:51:19;9.10;99.90
3715;DHT22;1873;49.988;8.674;2022-11-11T14:01:36;9.10;99.90
3715;DHT22;1873;49.988;8.674;2022-11-11T14:11:29;9.00;99.90
3715;DHT22;1873;49.988;8.674;2022-11-11T14:14:44;9.10;99.90
3715;DHT22;1873;49.988;8.674;2022-11-11T14:17:34;9.00;99.90
3715;DHT22;1873;49.988;8.674;2022-11-11T14:20:46;9.00;99.90
3715;DHT22;1873;49.988;8.674;2022-11-11T14:23:35;9.00;99.90
3715;DHT22;1873;49.988;8.674;2022-11-11T14:26:26;9.00;99.90
3715;DHT22;1873;49.988;8.674;2022-11-11T14:29:00;9.00;99.90
3715;DHT22;1873;49.988;8.674;2022-11-11T14:31:56;9.00;99.90
3715;DHT22;1873;49.988;8.674;2022-11-11T14:35:24;9.10;99.90
3715;DHT22;1873;49.988;8.674;2022-11-11T14:40:50;9.00;99.90
3715;DHT22;1873;49.988;8.674;2022-11-11T14:43:37;9.00;99.90
3715;DHT22;1873;49.988;8.674;2022-11-11T14:46:08;9.00;99.90
3715;DHT22;1873;49.988;8.674;2022-11-11T14:48:53;8.90;99.90
3715;DHT22;1873;49.988;8.674;2022-11-11T14:51:54;8.80;99.90
3715;DHT22;1873;49.988;8.674;2022-11-11T14:57:19;8.80;99.90
3715;DHT22;1873;49.988;8.674;2022-11-11T14:59:49;8.80;99.90
3715;DHT22;1873;49.988;8.674;2022-11-11T15:02:28;8.70;99.90
3715;DHT22;1873;49.988;8.674;2022-11-11T15:04:59;8.70;99.90
3715;DHT22;1873;49.988;8.674;2022-11-11T15:07:52;8.70;99.90
3715;DHT22;1873;49.988;8.674;2022-11-11T15:10:27;8.70;99.90
3715;DHT22;1873;49.988;8.674;2022-11-11T15:13:14;8.70;99.90
3715;DHT22;1873;49.988;8.674;2022-11-11T15:15:53;8.60;99.90
3715;DHT22;1873;49.988;8.674;2022-11-11T15:18:46;8.40;99.90
3715;DHT22;1873;49.988;8.674;2022-11-11T15:21:24;8.20;99.90
3715;DHT22;1873;49.988;8.674;2022-11-11T15:24:03;8.30;99.90
3715;DHT22;1873;49.988;8.674;2022-11-11T15:26:39;8.20;99.90
3715;DHT22;1873;49.988;8.674;2022-11-11T15:29:44;8.20;99.90
3715;DHT22;1873;49.988;8.674;2022-11-11T15:32:28;8.00;99.90
3715;DHT22;1873;49.988;8.674;2022-11-11T15:35:17;8.10;99.90
3715;DHT22;1873;49.988;8.674;2022-11-11T15:37:55;8.10;99.90
3715;DHT22;1873;49.988;8.674;2022-11-11T15:40:31;8.00;99.90
3715;DHT22;1873;49.988;8.674;2022-11-11T15:43:18;7.90;99.90
3715;DHT22;1873;49.988;8.674;2022-11-11T15:46:31;7.80;99.90
3715;DHT22;1873;49.988;8.674;2022-11-11T15:49:14;7.90;99.90
3715;DHT22;1873;49.988;8.674;2022-11-11T15:51:42;7.90;99.90
3715;DHT22;1873;49.988;8.674;2022-11-11T15:54:21;7.90;99.90
3715;DHT22;1873;49.988;8.674;2022-11-11T15:56:49;8.00;99.90
3715;DHT22;1873;49.988;8.674;2022-11-11T15:59:22;8.00;99.90
3715;DHT22;1873;49.988;8.674;2022-11-11T16:01:53;7.90;99.90
3715;DHT22;1873;49.988;8.674;2022-11-11T16:04:27;7.90;99.90
3715;DHT22;1873;49.988;8.674;2022-11-11T16:07:20;7.90;99.90
3715;DHT22;1873;49.988;8.674;2022-11-11T16:09:51;7.70;99.90
3715;DHT22;1873;49.988;8.674;2022-11-11T16:12:23;7.70;99.90
3715;DHT22;1873;49.988;8.674;2022-11-11T16:15:18;7.50;99.90
3715;DHT22;1873;49.988;8.674;2022-11-11T16:18:06;7.50;99.90
3715;DHT22;1873;49.988;8.674;2022-11-11T16:20:44;7.60;99.90
3715;DHT22;1873;49.988;8.674;2022-11-11T16:23:16;7.50;99.90
3715;DHT22;1873;49.988;8.674;2022-11-11T16:25:46;7.50;99.90
3715;DHT22;1873;49.988;8.674;2022-11-11T16:28:20;7.50;99.90
3715;DHT22;1873;49.988;8.674;2022-11-11T16:30:49;7.40;99.90
3715;DHT22;1873;49.988;8.674;2022-11-11T16:33:32;7.40;99.90
3715;DHT22;1873;49.988;8.674;2022-11-11T16:36:09;7.30;99.90
3715;DHT22;1873;49.988;8.674;2022-11-11T16:38:44;7.40;99.90
3715;DHT22;1873;49.988;8.674;2022-11-11T16:41:24;7.50;99.90
3715;DHT22;1873;49.988;8.674;2022-11-11T16:43:57;7.50;99.90
3715;DHT22;1873;49.988;8.674;2022-11-11T16:46:38;7.50;99.90
3715;DHT22;1873;49.988;8.674;2022-11-11T16:49:30;7.50;99.90
3715;DHT22;1873;49.988;8.674;2022-11-11T16:52:08;7.50;99.90
3715;DHT22;1873;49.988;8.674;2022-11-11T16:54:46;7.60;99.90
3715;DHT22;1873;49.988;8.674;2022-11-11T16:57:17;7.70;99.90
3715;DHT22;1873;49.988;8.674;2022-11-11T16:59:51;7.80;99.90
3715;DHT22;1873;49.988;8.674;2022-11-11T17:02:22;7.80;99.90
3715;DHT22;1873;49.988;8.674;2022-11-11T17:04:57;7.80;99.90
3715;DHT22;1873;49.988;8.674;2022-11-11T17:07:29;7.80;99.90
3715;DHT22;1873;49.988;8.674;2022-11-11T17:10:14;7.80;99.90
3715;DHT22;1873;49.988;8.674;2022-11-11T17:12:44;7.80;99.90
3715;DHT22;1873;49.988;8.674;2022-11-11T17:15:14;7.80;99.90
3715;DHT22;1873;49.988;8.674;2022-11-11T17:17:43;7.80;99.90
3715;DHT22;1873;49.988;8.674;2022-11-11T17:20:18;7.80;99.90
3715;DHT22;1873;49.988;8.674;2022-11-11T17:22:48;7.80;99.90
3715;DHT22;1873;49.988;8.674;2022-11-11T17:25:18;7.80;99.90
3715;DHT22;1873;49.988;8.674;2022-11-11T17:27:47;7.80;99.90
3715;DHT22;1873;49.988;8.674;2022-11-11T17:30:17;7.80;99.90
3715;DHT22;1873;49.988;8.674;2022-11-11T17:33:01;7.80;99.90
3715;DHT22;1873;49.988;8.674;2022-11-11T17:35:33;7.80;99.90
3715;DHT22;1873;49.988;8.674;2022-11-11T17:38:02;7.80;99.90
3715;DHT22;1873;49.988;8.674;2022-11-11T17:40:32;7.60;99.90
3715;DHT22;1873;49.988;8.674;2022-11-11T17:43:11;7.70;99.90
3715;DHT22;1873;49.988;8.674;2022-11-11T17:45:41;7.70;99.90
3715;DHT22;1873;49.988;8.674;2022-11-11T17:48:11;7.70;99.90
3715;DHT22;1873;49.988;8.674;2022-11-11T17:50:41;7.70;99.90
3715;DHT22;1873;49.988;8.674;2022-11-11T17:53:14;7.70;99.90
3715;DHT22;1873;49.988;8.674;2022-11-11T17:55:48;7.70;99.90
3715;DHT22;1873;49.988;8.674;2022-11-11T17:58:17;7.70;99.90
3715;DHT22;1873;49.988;8.674;2022-11-11T18:00:45;7.60;99.90
3715;DHT22;1873;49.988;8.674;2022-11-11T18:03:17;7.50;99.90
3715;DHT22;1873;49.988;8.674;2022-11-11T18:05:52;7.40;99.90
3715;DHT22;1873;49.988;8.674;2022-11-11T18:08:21;7.50;99.90
3715;DHT22;1873;49.988;8.674;2022-11-11T18:10:51;7.40;99.90
3715;DHT22;1873;49.988;8.674;2022-11-11T18:13:19;7.20;99.90
3715;DHT22;1873;49.988;8.674;2022-11-11T18:15:47;7.20;99.90
3715;DHT22;1873;49.988;8.674;2022-11-11T18:18:16;7.20;99.90
3715;DHT22;1873;49.988;8.674;2022-11-11T18:20:44;7.30;99.90
3715;DHT22;1873;49.988;8.674;2022-11-11T18:23:15;7.30;99.90
3715;DHT22;1873;49.988;8.674;2022-11-11T18:25:43;7.40;99.90
3715;DHT22;1873;49.988;8.674;2022-11-11T18:28:11;7.30;99.90
3715;DHT22;1873;49.988;8.674;2022-11-11T18:30:40;7.20;99.90
3715;DHT22;1873;49.988;8.674;2022-11-11T18:33:08;7.30;99.90
3715;DHT22;1873;49.988;8.674;2022-11-11T18:35:37;7.30;99.90
3715;DHT22;1873;49.988;8.674;2022-11-11T18:38:05;7.20;99.90
3715;DHT22;1873;49.988;8.674;2022-11-11T18:40:36;7.20;99.90
3715;DHT22;1873;49.988;8.674;2022-11-11T18:43:04;7.20;99.90
3715;DHT22;1873;49.988;8.674;2022-11-11T18:45:34;7.20;99.90
3715;DHT22;1873;49.988;8.674;2022-11-11T18:48:04;7.10;99.90